Time;durP1;ratioP1;P1;durP2;ratioP2;P2;SDS_P1;SDS_P2;PMS_P1;PMS_P2;Temp;Humidity;BMP_temperature;BMP_pressure;BME280_temperature;BME280_humidity;BME280_pressure;Samples;Min_cycle;Max_cycle;Signal;HPM_P1;HPM_P2
2022/01/28 00:01:03;;;;;;;1.27;0.50;;;3.80;99.90;;;;;;5028702;28;20052;-90
2022/01/28 00:03:31;;;;;;;1.40;0.70;;;3.80;99.90;;;;;;5029214;28;20046;-94
2022/01/28 00:06:02;;;;;;;4.20;0.90;;;3.80;99.90;;;;;;5028447;28;20119;-88
2022/01/28 00:08:29;;;;;;;2.47;0.57;;;4.00;99.90;;;;;;5013113;28;20042;-89
2022/01/28 00:10:56;;;;;;;1.75;0.70;;;4.00;99.90;;;;;;5012114;28;20089;-89
2022/01/28 00:16:37;;;;;;;2.53;0.68;;;4.10;99.90;;;;;;5017166;28;20045;-88
2022/01/28 00:19:26;;;;;;;4.00;0.82;;;4.10;99.90;;;;;;5016914;28;20053;-89
2022/01/28 00:38:29;;;;;;;1.88;0.50;;;4.00;99.90;;;;;;5016802;28;20064;-88
2022/01/28 00:40:56;;;;;;;1.48;0.30;;;3.90;99.90;;;;;;5032270;28;20058;-94
2022/01/28 00:43:23;;;;;;;3.58;0.65;;;3.90;99.90;;;;;;5032113;28;20072;-88
2022/01/28 00:45:50;;;;;;;3.67;0.60;;;3.80;99.90;;;;;;5031726;28;20112;-89
2022/01/28 00:48:17;;;;;;;2.83;0.70;;;3.70;99.90;;;;;;5031997;28;20128;-88
2022/01/28 00:50:44;;;;;;;4.57;0.80;;;3.60;99.90;;;;;;5031855;28;20486;-90
2022/01/28 00:53:12;;;;;;;3.15;0.50;;;3.60;99.90;;;;;;5032109;28;20042;-90
2022/01/28 00:55:39;;;;;;;7.53;0.73;;;3.60;99.90;;;;;;5031828;28;20060;-90
2022/01/28 00:58:05;;;;;;;12.50;1.08;;;3.60;99.90;;;;;;5031792;28;20045;-92
2022/01/28 01:00:32;;;;;;;4.22;0.70;;;3.50;99.90;;;;;;5031758;28;20057;-88
2022/01/28 01:02:59;;;;;;;3.10;0.73;;;3.50;99.90;;;;;;5031947;28;20054;-88
2022/01/28 01:05:26;;;;;;;2.40;0.60;;;3.30;99.90;;;;;;5031643;28;20512;-88
2022/01/28 01:07:53;;;;;;;3.47;0.70;;;3.10;99.90;;;;;;5032070;28;20053;-88
2022/01/28 01:10:20;;;;;;;1.77;0.57;;;3.10;99.90;;;;;;5031713;28;20137;-89
2022/01/28 01:12:47;;;;;;;5.05;0.77;;;3.10;99.90;;;;;;5031723;28;20058;-88
2022/01/28 01:15:19;;;;;;;2.03;0.47;;;3.20;99.90;;;;;;5031608;28;20064;-87
2022/01/28 01:17:59;;;;;;;2.05;0.40;;;3.40;99.90;;;;;;5031788;28;20053;-88
2022/01/28 01:23:07;;;;;;;2.00;0.80;;;3.10;99.90;;;;;;5016266;28;20136;-90
2022/01/28 01:25:44;;;;;;;6.07;0.80;;;2.90;99.90;;;;;;5030687;28;20250;-90
2022/01/28 01:28:12;;;;;;;4.50;0.70;;;2.80;99.90;;;;;;5031101;28;20042;-90
2022/01/28 01:30:42;;;;;;;1.55;0.60;;;2.60;99.90;;;;;;5031598;28;20406;-91
2022/01/28 01:33:09;;;;;;;1.83;0.60;;;2.60;99.90;;;;;;5031317;28;20073;-92
2022/01/28 01:35:37;;;;;;;1.42;0.40;;;2.50;99.90;;;;;;5014809;28;20045;-91
2022/01/28 01:38:06;;;;;;;2.67;0.47;;;2.50;99.90;;;;;;5032126;28;20053;-92
2022/01/28 01:40:41;;;;;;;5.80;0.60;;;2.50;99.90;;;;;;5031756;28;20417;-92
2022/01/28 01:43:30;;;;;;;2.22;0.65;;;2.50;99.90;;;;;;5031107;28;20096;-91
2022/01/28 01:46:25;;;;;;;2.60;0.60;;;2.40;99.90;;;;;;5017235;28;20509;-92
2022/01/28 01:52:23;;;;;;;2.50;0.60;;;2.20;99.90;;;;;;5021250;28;20050;-92
2022/01/28 01:54:25;;;;;;;4.75;1.17;;;2.10;99.90;;;;;;5012565;28;20081;-92
2022/01/28 01:56:54;;;;;;;3.38;0.57;;;2.10;99.90;;;;;;5034274;28;20271;-92
2022/01/28 01:59:21;;;;;;;2.45;0.70;;;2.00;99.90;;;;;;5033173;28;20049;-92
2022/01/28 02:01:48;;;;;;;5.63;0.73;;;1.90;99.90;;;;;;5031549;28;20088;-92
2022/01/28 02:04:15;;;;;;;2.53;0.47;;;1.80;99.90;;;;;;5032176;28;20056;-92
2022/01/28 02:06:42;;;;;;;1.67;0.50;;;1.70;99.90;;;;;;5032558;28;20046;-92
2022/01/28 02:09:09;;;;;;;5.57;1.35;;;1.70;99.90;;;;;;5016935;28;20057;-92
2022/01/28 02:11:39;;;;;;;5.82;0.88;;;1.80;99.90;;;;;;5032730;28;20060;-92
2022/01/28 02:14:06;;;;;;;6.88;0.80;;;1.80;99.90;;;;;;5032928;28;20096;-93
2022/01/28 02:16:34;;;;;;;7.40;0.98;;;1.80;99.90;;;;;;5016477;28;20769;-92
2022/01/28 02:19:02;;;;;;;6.15;1.00;;;1.70;99.90;;;;;;5032633;28;20050;-92
2022/01/28 02:21:42;;;;;;;2.85;0.80;;;1.70;99.90;;;;;;5017510;28;20085;-92
2022/01/28 02:24:10;;;;;;;3.42;0.90;;;1.60;99.90;;;;;;5028695;28;20129;-92
2022/01/28 02:26:37;;;;;;;7.38;1.60;;;1.60;99.90;;;;;;5032779;28;20569;-92
2022/01/28 02:29:18;;;;;;;5.95;1.00;;;1.60;99.90;;;;;;5032558;28;20109;-92
2022/01/28 02:31:44;;;;;;;7.72;1.00;;;1.60;99.90;;;;;;5033930;28;20046;-93
2022/01/28 02:34:12;;;;;;;9.23;1.10;;;1.60;99.90;;;;;;5033736;28;20453;-92
2022/01/28 02:36:39;;;;;;;4.47;1.20;;;1.60;99.90;;;;;;5033629;28;20077;-92
2022/01/28 02:39:06;;;;;;;6.05;1.40;;;1.50;99.90;;;;;;5037250;28;20121;-92
2022/01/28 02:41:38;;;;;;;5.68;1.08;;;1.40;99.90;;;;;;5034006;28;20088;-92
2022/01/28 02:44:20;;;;;;;13.43;2.53;;;1.30;99.90;;;;;;5031272;28;20050;-92
2022/01/28 02:47:01;;;;;;;6.17;1.17;;;1.30;99.90;;;;;;5030943;28;20096;-92
2022/01/28 02:49:33;;;;;;;8.48;1.35;;;1.30;99.90;;;;;;5029924;28;20046;-92
2022/01/28 02:52:02;;;;;;;9.32;1.80;;;1.30;99.90;;;;;;5030473;28;20515;-91
2022/01/28 02:54:29;;;;;;;9.82;1.42;;;1.40;99.90;;;;;;5029927;28;20050;-91
2022/01/28 02:57:01;;;;;;;11.18;1.98;;;1.40;99.90;;;;;;5029730;28;20057;-91
2022/01/28 02:59:28;;;;;;;5.00;1.58;;;1.60;99.90;;;;;;5029671;28;20064;-91
2022/01/28 03:01:55;;;;;;;14.80;1.58;;;1.70;99.90;;;;;;5029422;28;20498;-91
2022/01/28 03:06:51;;;;;;;9.60;1.25;;;2.00;99.90;;;;;;5014087;28;20045;-92
2022/01/28 03:09:20;;;;;;;5.00;0.98;;;2.10;99.90;;;;;;5029152;28;20518;-90
2022/01/28 03:12:12;;;;;;;5.00;1.10;;;2.20;99.90;;;;;;5029290;28;20069;-91
2022/01/28 03:15:04;;;;;;;8.18;1.60;;;2.40;99.90;;;;;;5029220;28;20042;-90
2022/01/28 03:20:05;;;;;;;8.02;1.55;;;2.60;99.90;;;;;;5013630;28;20054;-90
2022/01/28 03:22:33;;;;;;;10.57;1.00;;;2.70;99.90;;;;;;5029376;28;20477;-92
2022/01/28 03:24:59;;;;;;;5.78;1.17;;;2.70;99.90;;;;;;5029250;28;20052;-89
2022/01/28 03:27:49;;;;;;;10.00;1.58;;;2.70;99.90;;;;;;5028711;28;20064;-90
2022/01/28 03:30:13;;;;;;;6.60;1.00;;;2.70;99.90;;;;;;5013575;28;20054;-90
2022/01/28 03:32:40;;;;;;;7.18;1.13;;;2.70;99.90;;;;;;5028829;28;20057;-90
2022/01/28 03:35:26;;;;;;;8.13;1.38;;;2.60;99.90;;;;;;5026554;28;20058;-89
2022/01/28 03:37:59;;;;;;;9.38;1.30;;;2.60;99.90;;;;;;5029393;28;20487;-90
2022/01/28 03:40:27;;;;;;;7.10;1.13;;;2.50;99.90;;;;;;5028675;28;20073;-88
2022/01/28 03:42:53;;;;;;;7.75;1.23;;;2.40;99.90;;;;;;5028952;28;20057;-90
2022/01/28 03:45:20;;;;;;;7.35;1.67;;;2.30;99.90;;;;;;5028579;28;20050;-89
2022/01/28 03:47:47;;;;;;;4.78;0.70;;;2.40;99.90;;;;;;5032043;28;20128;-89
2022/01/28 03:50:14;;;;;;;5.50;1.25;;;2.20;99.90;;;;;;5035491;28;20490;-89
2022/01/28 03:52:41;;;;;;;5.53;1.10;;;2.20;99.90;;;;;;5020138;28;20046;-89
2022/01/28 03:55:08;;;;;;;7.93;1.00;;;2.10;99.90;;;;;;5019982;28;20474;-89
2022/01/28 03:57:35;;;;;;;11.90;1.90;;;2.00;99.90;;;;;;5018968;28;20088;-89
2022/01/28 04:00:03;;;;;;;6.28;1.27;;;1.80;99.90;;;;;;5035246;28;20052;-89
2022/01/28 04:02:34;;;;;;;6.75;1.63;;;1.60;99.90;;;;;;5035323;28;20050;-89
2022/01/28 04:13:22;;;;;;;6.10;1.15;;;1.10;99.90;;;;;;5019731;28;20050;-88
2022/01/28 04:17:18;;;;;;;7.88;1.38;;;1.10;99.90;;;;;;5034925;28;20060;-89
2022/01/28 04:18:39;;;;;;;8.85;1.58;;;1.10;99.90;;;;;;5011777;28;20064;-89
2022/01/28 04:21:06;;;;;;;6.10;1.83;;;1.10;99.90;;;;;;5018533;28;20053;-89
2022/01/28 04:23:32;;;;;;;5.35;1.65;;;1.10;99.90;;;;;;5019743;28;20052;-88
2022/01/28 04:25:59;;;;;;;8.48;1.35;;;1.30;99.90;;;;;;5018557;28;20045;-89
2022/01/28 04:28:26;;;;;;;9.85;1.77;;;1.60;99.90;;;;;;5034207;28;20045;-88
2022/01/28 04:30:53;;;;;;;6.78;1.40;;;1.90;99.90;;;;;;5034672;28;20056;-88
2022/01/28 04:33:20;;;;;;;8.02;1.70;;;2.00;99.90;;;;;;5034791;28;20054;-89
2022/01/28 04:35:50;;;;;;;5.30;0.98;;;2.20;99.90;;;;;;5019306;28;20042;-88
2022/01/28 04:38:37;;;;;;;7.18;1.10;;;2.30;99.90;;;;;;5034959;28;20077;-88
2022/01/28 04:41:16;;;;;;;8.15;1.75;;;2.30;99.90;;;;;;5034939;28;20441;-88
2022/01/28 04:43:45;;;;;;;3.03;0.70;;;2.40;99.90;;;;;;5034632;28;20060;-87
2022/01/28 04:48:51;;;;;;;4.10;0.77;;;2.30;99.90;;;;;;5019605;28;20081;-89
2022/01/28 04:51:46;;;;;;;3.63;0.85;;;2.20;99.90;;;;;;5034798;28;20046;-89
2022/01/28 04:56:57;;;;;;;8.00;1.00;;;2.20;99.90;;;;;;5019339;28;20050;-88
2022/01/28 05:02:41;;;;;;;3.75;1.00;;;2.30;99.90;;;;;;4993095;28;20132;-89
2022/01/28 05:13:52;;;;;;;7.50;1.00;;;2.60;99.90;;;;;;5015973;28;20050;-88
2022/01/28 05:27:15;;;;;;;4.57;1.25;;;2.60;99.90;;;;;;5015553;28;20144;-88
2022/01/28 05:29:41;;;;;;;8.20;0.80;;;2.50;99.90;;;;;;5030948;28;20522;-87
2022/01/28 05:32:09;;;;;;;6.65;1.55;;;2.50;99.90;;;;;;5015354;28;20045;-88
2022/01/28 05:34:37;;;;;;;9.85;1.52;;;2.40;99.90;;;;;;5030915;28;20053;-87
2022/01/28 05:37:07;;;;;;;10.40;1.67;;;2.40;99.90;;;;;;5015387;28;20054;-86
2022/01/28 05:39:34;;;;;;;2.70;1.00;;;2.40;99.90;;;;;;5014950;28;20054;-88
2022/01/28 05:42:02;;;;;;;10.85;1.85;;;2.50;99.90;;;;;;5030616;28;20129;-89
2022/01/28 05:44:29;;;;;;;9.30;1.75;;;2.50;99.90;;;;;;5015077;28;20050;-88
2022/01/28 05:46:59;;;;;;;9.45;1.25;;;2.40;99.90;;;;;;5014298;28;20069;-88
2022/01/28 05:49:25;;;;;;;10.65;1.50;;;2.40;99.90;;;;;;5030403;28;20049;-88
2022/01/28 05:51:52;;;;;;;6.18;1.20;;;2.40;99.90;;;;;;5030460;28;20056;-88
2022/01/28 05:54:19;;;;;;;6.93;1.40;;;2.50;99.90;;;;;;5030216;28;20046;-88
2022/01/28 05:56:46;;;;;;;11.13;1.40;;;2.40;99.90;;;;;;5015121;28;20421;-88
2022/01/28 05:59:12;;;;;;;7.15;1.27;;;2.40;99.90;;;;;;5015180;28;20475;-88
2022/01/28 06:01:39;;;;;;;6.75;1.20;;;2.40;99.90;;;;;;5030418;28;20046;-88
2022/01/28 06:04:06;;;;;;;11.73;1.23;;;2.50;99.90;;;;;;5029979;28;20085;-88
2022/01/28 06:06:33;;;;;;;10.98;1.48;;;2.60;99.90;;;;;;5013640;28;20072;-87
2022/01/28 06:09:01;;;;;;;7.75;1.73;;;2.70;99.90;;;;;;5030212;28;20052;-88
2022/01/28 06:11:28;;;;;;;6.38;1.25;;;2.80;99.90;;;;;;5013458;28;20053;-88
2022/01/28 06:13:55;;;;;;;7.28;1.70;;;2.90;99.90;;;;;;5030424;28;20068;-89
2022/01/28 06:16:22;;;;;;;8.18;1.40;;;2.90;99.90;;;;;;5030163;28;20046;-88
2022/01/28 06:18:49;;;;;;;14.27;2.05;;;2.90;99.90;;;;;;5029981;28;20487;-88
2022/01/28 06:21:16;;;;;;;11.93;2.10;;;2.90;99.90;;;;;;5029733;28;20060;-88
2022/01/28 06:23:43;;;;;;;6.93;1.55;;;2.90;99.90;;;;;;5029791;28;20045;-88
2022/01/28 06:26:10;;;;;;;7.90;1.25;;;2.90;99.90;;;;;;5029958;28;20049;-88
2022/01/28 06:28:37;;;;;;;9.95;1.67;;;2.90;99.90;;;;;;5029778;28;20056;-88
2022/01/28 06:31:04;;;;;;;7.97;1.30;;;3.00;99.90;;;;;;5029711;28;20056;-88
2022/01/28 06:33:31;;;;;;;10.38;1.35;;;3.00;99.90;;;;;;5013201;28;20050;-88
2022/01/28 06:35:57;;;;;;;10.07;1.77;;;3.00;99.90;;;;;;5030101;28;20509;-87
2022/01/28 06:38:25;;;;;;;8.60;1.30;;;3.10;99.90;;;;;;5029653;28;20056;-88
2022/01/28 06:40:52;;;;;;;9.82;1.70;;;3.20;99.90;;;;;;5013301;28;20060;-88
2022/01/28 06:43:19;;;;;;;6.38;1.65;;;3.30;99.90;;;;;;5014521;28;20100;-88
2022/01/28 06:45:46;;;;;;;10.50;1.70;;;3.30;99.90;;;;;;5029197;28;20050;-87
2022/01/28 06:48:16;;;;;;;6.90;0.90;;;3.40;99.90;;;;;;5014081;28;20045;-88
2022/01/28 06:50:44;;;;;;;7.75;1.70;;;3.40;99.90;;;;;;5029278;28;20089;-89
2022/01/28 06:53:13;;;;;;;6.93;1.17;;;3.40;99.90;;;;;;5029575;28;20430;-89
2022/01/28 06:55:40;;;;;;;3.38;1.60;;;3.40;99.90;;;;;;5029445;28;20041;-88
2022/01/28 06:58:08;;;;;;;10.40;2.67;;;3.40;99.90;;;;;;5013746;28;20065;-88
2022/01/28 07:00:37;;;;;;;5.57;1.40;;;3.30;99.90;;;;;;5029145;28;20121;-88
2022/01/28 07:03:05;;;;;;;7.35;2.05;;;3.30;99.90;;;;;;5013567;28;20053;-86
2022/01/28 07:05:32;;;;;;;10.82;1.48;;;3.30;99.90;;;;;;5029158;28;20188;-88
2022/01/28 07:07:59;;;;;;;4.60;0.82;;;3.30;99.90;;;;;;5029145;28;20050;-88
2022/01/28 07:10:27;;;;;;;8.15;1.67;;;3.40;99.90;;;;;;5013803;28;20057;-87
2022/01/28 07:12:54;;;;;;;6.28;1.30;;;3.40;99.90;;;;;;5028142;28;20050;-86
2022/01/28 07:15:24;;;;;;;10.43;1.60;;;3.40;99.90;;;;;;5012404;28;20145;-88
2022/01/28 07:17:56;;;;;;;8.45;1.20;;;3.30;99.90;;;;;;5029210;28;20104;-89
2022/01/28 07:20:24;;;;;;;6.05;1.08;;;3.40;99.90;;;;;;5013912;28;20069;-88
2022/01/28 07:22:51;;;;;;;11.25;1.75;;;3.40;99.90;;;;;;5028303;28;20050;-89
2022/01/28 07:25:18;;;;;;;8.80;1.45;;;3.30;99.90;;;;;;5028737;28;20042;-88
2022/01/28 07:27:45;;;;;;;8.35;1.52;;;3.30;99.90;;;;;;5013557;28;20060;-88
2022/01/28 07:30:13;;;;;;;4.75;1.00;;;3.30;99.90;;;;;;5028686;28;20514;-88
2022/01/28 07:32:41;;;;;;;8.70;1.40;;;3.30;99.90;;;;;;5028736;28;20578;-87
2022/01/28 07:35:11;;;;;;;10.85;2.03;;;3.30;99.90;;;;;;5028571;28;20490;-88
2022/01/28 07:37:38;;;;;;;6.05;1.27;;;3.40;99.90;;;;;;5013478;28;20693;-87
2022/01/28 07:40:06;;;;;;;9.00;1.48;;;3.50;99.90;;;;;;5013242;28;20076;-88
2022/01/28 07:42:36;;;;;;;7.20;1.73;;;3.50;99.90;;;;;;5013024;28;20060;-87
2022/01/28 07:45:04;;;;;;;10.80;1.67;;;3.60;99.90;;;;;;5028341;28;20049;-87
2022/01/28 07:47:32;;;;;;;9.30;1.42;;;3.60;99.90;;;;;;5028646;28;20046;-87
2022/01/28 07:49:59;;;;;;;6.53;1.15;;;3.50;99.90;;;;;;5028532;28;20137;-87
2022/01/28 07:52:26;;;;;;;8.15;1.25;;;3.60;99.90;;;;;;5013460;28;20148;-87
2022/01/28 07:54:53;;;;;;;10.88;1.70;;;3.70;99.90;;;;;;5028245;28;20077;-88
2022/01/28 07:57:20;;;;;;;7.03;1.50;;;3.70;99.90;;;;;;5011695;28;20062;-87
2022/01/28 07:59:46;;;;;;;15.45;1.95;;;3.80;99.90;;;;;;5027419;28;20052;-86
2022/01/28 08:02:13;;;;;;;5.80;1.30;;;3.80;99.90;;;;;;5028344;28;20172;-87
2022/01/28 08:04:40;;;;;;;7.13;1.40;;;3.90;99.90;;;;;;5028318;28;20072;-87
2022/01/28 08:07:07;;;;;;;8.73;1.63;;;3.90;99.90;;;;;;5013200;28;20136;-88
2022/01/28 08:09:34;;;;;;;6.53;1.15;;;4.00;99.90;;;;;;5013236;28;20056;-88
2022/01/28 08:12:01;;;;;;;6.97;1.30;;;4.00;99.90;;;;;;5028339;28;20494;-87
2022/01/28 08:14:30;;;;;;;6.70;1.23;;;4.00;99.90;;;;;;5027897;28;20045;-87
2022/01/28 08:16:58;;;;;;;9.68;1.42;;;4.10;99.90;;;;;;5028566;28;20091;-90
2022/01/28 08:19:25;;;;;;;9.55;1.90;;;4.10;99.90;;;;;;5028505;28;20053;-88
2022/01/28 08:21:52;;;;;;;7.45;2.08;;;4.10;99.90;;;;;;5011502;28;20137;-88
2022/01/28 08:24:19;;;;;;;9.60;2.05;;;4.20;99.90;;;;;;5028271;28;20088;-88
2022/01/28 08:26:46;;;;;;;8.25;1.25;;;4.20;99.90;;;;;;5012077;28;20104;-89
2022/01/28 08:29:13;;;;;;;7.95;1.52;;;4.20;99.90;;;;;;5028364;28;20049;-88
2022/01/28 08:31:40;;;;;;;6.68;1.70;;;4.20;99.90;;;;;;5028582;28;20140;-88
2022/01/28 08:34:07;;;;;;;8.32;1.58;;;4.30;99.90;;;;;;5029738;28;20064;-88
2022/01/28 08:36:34;;;;;;;9.30;2.17;;;4.30;99.90;;;;;;5032135;28;20056;-87
2022/01/28 08:39:04;;;;;;;9.40;2.33;;;4.30;99.90;;;;;;5015420;28;20058;-87
2022/01/28 08:41:32;;;;;;;7.93;1.50;;;4.30;99.90;;;;;;5015418;28;20516;-88
2022/01/28 08:43:59;;;;;;;7.65;1.45;;;4.30;99.90;;;;;;5032253;28;20046;-88
2022/01/28 08:46:26;;;;;;;10.52;1.63;;;4.30;99.90;;;;;;5032041;28;20050;-87
2022/01/28 08:48:53;;;;;;;6.53;1.30;;;4.40;99.90;;;;;;5032060;28;20046;-86
2022/01/28 08:51:20;;;;;;;5.60;1.77;;;4.40;99.90;;;;;;5031949;28;20045;-88
2022/01/28 08:53:47;;;;;;;14.25;1.90;;;4.50;99.90;;;;;;5016219;28;20132;-87
2022/01/28 08:56:14;;;;;;;8.00;1.55;;;4.40;99.90;;;;;;5031846;28;20054;-88
2022/01/28 08:58:41;;;;;;;10.32;2.10;;;4.40;99.90;;;;;;5032151;28;20041;-88
2022/01/28 09:01:10;;;;;;;4.72;1.25;;;4.40;99.90;;;;;;5015488;28;20054;-88
2022/01/28 09:03:37;;;;;;;10.88;1.83;;;4.40;99.90;;;;;;5015471;28;20050;-88
2022/01/28 09:06:04;;;;;;;7.68;1.40;;;4.60;99.90;;;;;;5031513;28;20050;-88
2022/01/28 09:08:31;;;;;;;10.55;1.80;;;4.70;99.90;;;;;;5016445;28;20505;-87
2022/01/28 09:11:07;;;;;;;8.93;1.52;;;4.80;99.90;;;;;;5031671;28;20052;-88
2022/01/28 09:13:40;;;;;;;9.75;1.80;;;4.80;99.90;;;;;;5031767;28;20049;-87
2022/01/28 09:16:07;;;;;;;4.75;1.55;;;4.80;99.90;;;;;;5031551;28;20056;-87
2022/01/28 09:18:34;;;;;;;10.18;2.05;;;4.90;99.90;;;;;;5031501;28;20133;-87
2022/01/28 09:21:00;;;;;;;10.48;1.90;;;4.90;99.90;;;;;;5030926;28;20052;-87
2022/01/28 09:23:27;;;;;;;11.95;2.20;;;4.90;99.90;;;;;;5015633;28;20050;-87
2022/01/28 09:25:54;;;;;;;6.55;1.60;;;4.90;99.90;;;;;;5015223;28;20068;-87
2022/01/28 09:28:21;;;;;;;9.90;1.73;;;4.90;99.90;;;;;;5016584;28;20410;-87
2022/01/28 09:30:48;;;;;;;13.85;1.88;;;5.00;99.90;;;;;;5031714;28;20528;-88
2022/01/28 09:33:15;;;;;;;5.78;1.38;;;5.00;99.90;;;;;;5031116;28;20137;-87
2022/01/28 09:35:42;;;;;;;11.70;1.80;;;4.90;99.90;;;;;;5014776;28;20146;-87
2022/01/28 09:38:10;;;;;;;8.73;1.50;;;5.00;99.90;;;;;;5014793;28;20486;-87
2022/01/28 09:40:37;;;;;;;11.05;1.65;;;4.90;99.90;;;;;;5030840;28;20141;-87
2022/01/28 09:43:07;;;;;;;7.85;1.75;;;4.90;99.90;;;;;;5030886;28;20052;-87
2022/01/28 09:45:35;;;;;;;12.00;1.75;;;4.90;99.90;;;;;;5030150;28;20046;-87
2022/01/28 09:48:03;;;;;;;9.65;2.00;;;5.00;99.90;;;;;;5030847;28;20056;-87
2022/01/28 09:50:33;;;;;;;6.10;1.20;;;5.00;99.90;;;;;;5030643;28;20508;-88
2022/01/28 09:53:00;;;;;;;5.72;1.58;;;5.00;99.90;;;;;;5030735;28;20053;-87
2022/01/28 09:55:28;;;;;;;6.78;1.48;;;5.00;99.90;;;;;;5015191;28;20528;-87
2022/01/28 09:57:59;;;;;;;9.50;1.88;;;5.00;99.90;;;;;;5030864;28;20092;-88
2022/01/28 10:00:27;;;;;;;11.48;1.90;;;5.00;99.90;;;;;;5030373;28;20129;-87
2022/01/28 10:02:56;;;;;;;7.93;1.42;;;4.80;99.90;;;;;;5015042;28;20085;-87
2022/01/28 10:05:27;;;;;;;7.72;1.60;;;4.90;99.90;;;;;;5030516;28;20104;-86
2022/01/28 10:08:16;;;;;;;8.90;2.13;;;4.80;99.90;;;;;;5030566;28;20503;-87
2022/01/28 10:10:52;;;;;;;7.13;1.92;;;4.90;99.90;;;;;;5030393;28;20046;-87
2022/01/28 10:13:26;;;;;;;8.88;1.67;;;4.80;99.90;;;;;;5030281;28;20534;-87
2022/01/28 10:15:57;;;;;;;18.90;1.98;;;4.60;99.90;;;;;;5015002;28;20122;-87
2022/01/28 10:18:43;;;;;;;17.15;2.67;;;4.40;99.90;;;;;;5014196;28;20060;-87
2022/01/28 10:21:23;;;;;;;16.85;2.53;;;4.00;99.90;;;;;;5029931;28;20049;-87
2022/01/28 10:23:58;;;;;;;6.45;1.35;;;3.90;99.90;;;;;;5030448;28;20052;-87
2022/01/28 10:26:50;;;;;;;6.45;1.42;;;3.60;99.90;;;;;;5030062;28;20410;-87
2022/01/28 10:29:23;;;;;;;10.60;1.80;;;3.40;99.90;;;;;;5014698;28;20053;-86
2022/01/28 10:32:01;;;;;;;;;;;3.40;99.90;;;;;;5030101;28;20056;-85
2022/01/28 10:34:37;;;;;;;12.48;1.65;;;3.40;99.90;;;;;;5013653;28;19921;-85
2022/01/28 10:37:09;;;;;;;10.88;1.98;;;3.60;99.90;;;;;;5030009;28;20042;-87
2022/01/28 10:39:48;;;;;;;6.20;1.40;;;3.70;99.90;;;;;;5029753;28;20061;-87
2022/01/28 10:42:50;;;;;;;7.75;1.52;;;3.80;99.90;;;;;;5028667;28;20104;-87
2022/01/28 10:45:20;;;;;;;11.90;2.35;;;3.80;99.90;;;;;;5014237;28;20058;-86
2022/01/28 10:47:53;;;;;;;11.77;2.20;;;3.90;99.90;;;;;;5029724;28;20068;-87
2022/01/28 10:50:26;;;;;;;8.50;1.98;;;3.90;99.90;;;;;;5029401;28;20472;-86
2022/01/28 10:53:13;;;;;;;9.15;1.90;;;3.90;99.90;;;;;;5029638;28;20153;-86
2022/01/28 10:55:49;;;;;;;11.90;2.10;;;4.00;99.90;;;;;;5029578;28;20054;-86
2022/01/28 10:58:18;;;;;;;12.82;1.92;;;4.00;99.90;;;;;;5028479;28;20077;-87
2022/01/28 11:00:47;;;;;;;8.25;2.08;;;4.10;99.90;;;;;;5029294;28;20050;-87
2022/01/28 11:03:17;;;;;;;14.30;1.75;;;4.20;99.90;;;;;;5029057;28;20077;-86
2022/01/28 11:05:44;;;;;;;10.60;1.83;;;4.20;99.90;;;;;;5013733;28;20049;-86
2022/01/28 11:08:13;;;;;;;8.98;1.63;;;4.30;99.90;;;;;;5029248;28;20410;-87
2022/01/28 11:10:41;;;;;;;12.73;2.50;;;4.40;99.90;;;;;;5014156;28;20064;-86
2022/01/28 11:13:08;;;;;;;12.95;1.80;;;4.50;99.90;;;;;;5013892;28;20050;-87
2022/01/28 11:15:36;;;;;;;11.05;2.40;;;4.50;99.90;;;;;;5013607;28;20054;-89
2022/01/28 11:18:05;;;;;;;15.77;2.33;;;4.60;99.90;;;;;;5014220;28;20060;-88
2022/01/28 11:20:39;;;;;;;22.83;2.70;;;4.50;99.90;;;;;;5029333;28;20056;-86
2022/01/28 11:23:33;;;;;;;11.55;1.88;;;4.50;99.90;;;;;;5028772;28;20061;-87
2022/01/28 11:26:14;;;;;;;13.13;2.05;;;4.60;99.90;;;;;;5028699;28;20046;-87
2022/01/28 11:28:42;;;;;;;14.95;2.25;;;4.60;99.90;;;;;;5029370;28;20080;-87
2022/01/28 11:31:12;;;;;;;10.27;1.70;;;4.70;99.90;;;;;;5028982;28;20046;-87
2022/01/28 11:33:49;;;;;;;12.25;3.03;;;4.70;99.90;;;;;;5029056;28;20054;-87
2022/01/28 11:36:35;;;;;;;19.50;6.75;;;4.70;99.90;;;;;;5013721;28;20481;-86
2022/01/28 11:39:08;;;;;;;24.10;3.17;;;4.60;99.90;;;;;;5028630;28;20133;-86
2022/01/28 11:41:36;;;;;;;15.27;2.60;;;4.80;99.90;;;;;;5028836;28;20056;-87
2022/01/28 11:44:03;;;;;;;27.63;3.63;;;4.90;99.90;;;;;;5028981;28;20144;-86
2022/01/28 11:46:37;;;;;;;17.17;2.47;;;4.90;99.90;;;;;;5028636;28;20133;-89
2022/01/28 11:49:07;;;;;;;12.98;1.85;;;5.00;99.90;;;;;;5028650;28;20046;-87
2022/01/28 11:51:38;;;;;;;12.57;2.00;;;5.00;99.90;;;;;;5029021;28;20399;-86
2022/01/28 11:54:07;;;;;;;14.32;2.17;;;4.90;99.90;;;;;;5028807;28;20474;-87
2022/01/28 11:56:56;;;;;;;17.77;2.17;;;4.90;99.90;;;;;;5013515;28;20411;-87
2022/01/28 11:59:28;;;;;;;15.13;2.10;;;5.10;99.90;;;;;;5013003;28;20049;-87
2022/01/28 12:01:54;;;;;;;8.63;1.83;;;5.00;99.90;;;;;;5028980;28;20407;-86
2022/01/28 12:04:27;;;;;;;15.55;2.20;;;5.20;99.90;;;;;;5028724;28;20143;-87
2022/01/28 12:07:00;;;;;;;24.45;2.50;;;5.10;99.90;;;;;;5028830;28;20148;-87
2022/01/28 12:09:29;;;;;;;16.85;2.75;;;5.20;99.90;;;;;;5015722;28;20046;-87
2022/01/28 12:11:57;;;;;;;14.10;2.30;;;5.30;99.90;;;;;;5032436;28;20077;-87
2022/01/28 12:14:50;;;;;;;14.57;2.60;;;5.30;99.90;;;;;;5016316;28;20046;-87
2022/01/28 12:17:32;;;;;;;15.50;3.28;;;5.50;99.90;;;;;;5032495;28;20082;-86
2022/01/28 12:20:34;;;;;;;11.82;2.50;;;5.60;99.90;;;;;;5016666;28;20388;-85
2022/01/28 12:23:03;;;;;;;13.82;3.08;;;5.70;99.90;;;;;;5031673;28;20068;-87
2022/01/28 12:25:35;;;;;;;12.20;2.20;;;5.80;99.90;;;;;;5017432;28;20104;-87
2022/01/28 12:28:19;;;;;;;14.48;2.40;;;5.70;99.90;;;;;;5032723;28;20070;-87
2022/01/28 12:30:52;;;;;;;16.83;2.78;;;5.70;99.90;;;;;;5032745;28;20085;-87
2022/01/28 12:33:23;;;;;;;15.23;2.43;;;5.90;99.90;;;;;;5032592;28;20158;-87
2022/01/28 12:35:56;;;;;;;11.00;2.35;;;5.90;99.90;;;;;;5032265;28;20050;-87
2022/01/28 12:38:28;;;;;;;14.05;2.88;;;6.00;99.90;;;;;;5015929;28;20073;-87
2022/01/28 12:41:08;;;;;;;14.50;2.58;;;6.00;99.90;;;;;;5031901;28;20545;-88
2022/01/28 12:43:38;;;;;;;15.27;2.60;;;5.90;99.90;;;;;;5015570;28;20541;-87
2022/01/28 12:46:08;;;;;;;14.63;2.53;;;5.80;99.90;;;;;;5032356;28;20076;-92
2022/01/28 12:48:36;;;;;;;13.23;2.00;;;5.90;99.90;;;;;;5032488;28;20057;-87
2022/01/28 12:51:03;;;;;;;13.90;2.13;;;6.00;99.90;;;;;;5032385;28;20577;-87
2022/01/28 12:53:42;;;;;;;14.85;2.45;;;6.00;99.90;;;;;;5016719;28;20054;-86
2022/01/28 12:56:13;;;;;;;18.13;3.25;;;6.20;99.90;;;;;;5031676;28;20467;-87
2022/01/28 12:58:55;;;;;;;13.52;2.40;;;6.30;99.90;;;;;;5014988;28;20081;-86
2022/01/28 13:01:22;;;;;;;16.42;2.38;;;6.60;99.90;;;;;;5031549;28;20210;-89
2022/01/28 13:04:04;;;;;;;10.68;2.45;;;6.60;99.90;;;;;;5031393;28;20115;-87
2022/01/28 13:09:14;;;;;;;10.07;2.40;;;6.80;99.90;;;;;;5015957;28;20046;-87
2022/01/28 13:11:46;;;;;;;12.35;2.65;;;7.00;99.90;;;;;;5016393;28;20096;-87
2022/01/28 13:14:19;;;;;;;14.82;3.10;;;6.80;99.90;;;;;;5031404;28;20050;-87
2022/01/28 13:16:48;;;;;;;12.75;3.05;;;6.70;99.90;;;;;;5016079;28;20137;-86
2022/01/28 13:19:16;;;;;;;12.07;2.70;;;6.50;99.90;;;;;;5031391;28;20057;-87
2022/01/28 13:21:46;;;;;;;14.15;2.35;;;6.60;99.90;;;;;;5029769;28;20053;-87
2022/01/28 13:24:18;;;;;;;11.52;2.65;;;6.70;99.90;;;;;;5031299;28;20076;-87
2022/01/28 13:26:58;;;;;;;8.48;1.83;;;6.60;99.90;;;;;;5030797;28;20447;-86
2022/01/28 13:29:28;;;;;;;15.50;2.45;;;6.50;99.90;;;;;;5031249;28;20479;-88
2022/01/28 13:31:57;;;;;;;16.67;2.25;;;6.70;99.90;;;;;;5031233;28;20049;-89
2022/01/28 13:34:25;;;;;;;17.10;3.10;;;6.40;99.90;;;;;;5030877;28;20105;-87
2022/01/28 13:36:55;;;;;;;12.55;2.60;;;6.30;99.90;;;;;;5031058;28;20053;-87
2022/01/28 13:39:27;;;;;;;11.65;2.20;;;6.40;99.90;;;;;;5030685;28;20060;-87
2022/01/28 13:42:15;;;;;;;12.68;2.53;;;6.20;99.90;;;;;;5033763;28;20049;-87
2022/01/28 13:44:49;;;;;;;10.68;2.30;;;6.00;99.90;;;;;;5030904;28;20054;-87
2022/01/28 13:47:19;;;;;;;11.02;2.17;;;5.90;99.90;;;;;;5030921;28;20041;-87
2022/01/28 13:49:47;;;;;;;9.45;2.10;;;5.80;99.90;;;;;;5030838;28;20411;-87
2022/01/28 13:52:26;;;;;;;15.10;2.55;;;5.70;99.90;;;;;;5030840;28;20136;-87
2022/01/28 13:54:53;;;;;;;13.80;2.20;;;5.60;99.90;;;;;;5030566;28;20557;-86
2022/01/28 13:57:28;;;;;;;15.15;2.80;;;5.70;99.90;;;;;;5030887;28;20387;-87
2022/01/28 14:00:04;;;;;;;8.02;2.08;;;5.80;99.90;;;;;;5030582;28;20056;-87
2022/01/28 14:02:39;;;;;;;10.95;1.95;;;5.80;99.90;;;;;;5015353;28;20050;-88
2022/01/28 14:05:06;;;;;;;13.13;2.72;;;5.70;99.90;;;;;;5030499;28;20454;-86
2022/01/28 14:07:33;;;;;;;7.63;1.83;;;5.70;99.90;;;;;;5030822;28;20050;-87
2022/01/28 14:10:03;;;;;;;12.63;1.90;;;5.70;99.90;;;;;;5014187;28;20042;-87
2022/01/28 14:12:42;;;;;;;12.10;2.30;;;5.70;99.90;;;;;;5014995;28;20108;-87
2022/01/28 14:15:38;;;;;;;12.35;2.15;;;5.70;99.90;;;;;;5030229;28;20050;-87
2022/01/28 14:18:05;;;;;;;14.77;2.30;;;5.60;99.90;;;;;;5030316;28;20054;-86
2022/01/28 14:20:32;;;;;;;11.85;2.58;;;5.50;99.90;;;;;;5030692;28;20041;-88